LYBE/BEG METAR and TAF weather

Enter ICAO airport designator
Station Type Date Time Source
LYBE METAR 2018/04/27 00:30 UTC NOAA

LYBE 270030Z 31010KT CAVOK 14/07 Q1018 NOSIG


Station Type Date Time Source
LYBE Decoded METAR 2018/04/27 00:30 UTC NOAA

Beograd / Surcin, Serbia and Montenegro (LYBE) 44-49N 020-17E 99M
Apr 26, 2018 - 08:30 PM EDT / 2018.04.27 0030 UTC
Wind: from the NW (310 degrees) at 12 MPH (10 KT):0
Visibility: greater than 7 mile(s):0
Temperature: 57 F (14 C)
Dew Point: 44 F (7 C)
Relative Humidity: 62%
Pressure (altimeter): 30.06 in. Hg (1018 hPa)
ob: LYBE 270030Z 31010KT CAVOK 14/07 Q1018 NOSIG
cycle: 0

Station Type Date Time Source
LYBE TAF 2018/04/26 18:23 UTC NOAA

TAF LYBE 261700Z 2618/2718 34014KT CAVOK TX23/2714Z TN12/2704Z
TEMPO 2618/2621 36020G30KT
BECMG 2704/2706 04006KT


Example: see airport list